Time;durP1;ratioP1;P1;durP2;ratioP2;P2;SDS_P1;SDS_P2;PMS_P1;PMS_P2;Temp;Humidity;BMP_temperature;BMP_pressure;BME280_temperature;BME280_humidity;BME280_pressure;Samples;Min_cycle;Max_cycle;Signal;HPM_P1;HPM_P2
2022/06/22 00:01:12;;;;;;;16.05;9.48;;;;;;;;;;4967444;28;20104;-80
2022/06/22 00:03:40;;;;;;;16.88;9.85;;;;;;;;;;4983824;28;20141;-80
2022/06/22 00:06:06;;;;;;;12.85;9.18;;;;;;;;;;5053162;28;20064;-80
2022/06/22 00:08:52;;;;;;;18.35;9.70;;;;;;;;;;5059245;28;20120;-79
2022/06/22 00:11:43;;;;;;;13.57;8.73;;;;;;;;;;5039910;28;20037;-79
2022/06/22 00:14:19;;;;;;;19.08;9.85;;;;;;;;;;5059540;28;20040;-80
2022/06/22 00:16:50;;;;;;;19.20;11.75;;;;;;;;;;5023431;28;20551;-80
2022/06/22 00:19:35;;;;;;;16.27;11.10;;;;;;;;;;5060539;28;20055;-80
2022/06/22 00:22:02;;;;;;;16.95;10.52;;;;;;;;;;5058994;28;20041;-81
2022/06/22 00:24:28;;;;;;;11.85;9.20;;;;;;;;;;5042433;28;20033;-80
2022/06/22 00:30:39;;;;;;;7.10;4.55;;;;;;;;;;5061062;28;20055;-79
2022/06/22 00:33:31;;;;;;;11.35;4.72;;;;;;;;;;5059589;28;20048;-81
2022/06/22 00:42:25;;;;;;;5.13;4.63;;;;;;;;;;4963569;28;20038;-81
2022/06/22 00:44:53;;;;;;;7.97;5.30;;;;;;;;;;5061067;28;20528;-80
2022/06/22 00:47:28;;;;;;;7.05;5.10;;;;;;;;;;5038891;28;20032;-80
2022/06/22 00:50:12;;;;;;;9.15;5.72;;;;;;;;;;5060613;28;20404;-81
2022/06/22 00:52:41;;;;;;;8.15;5.60;;;;;;;;;;5040191;28;20059;-80
2022/06/22 00:55:39;;;;;;;9.18;6.10;;;;;;;;;;5073849;28;20063;-80
2022/06/22 00:58:09;;;;;;;6.80;4.70;;;;;;;;;;5078100;28;20060;-79
2022/06/22 01:00:54;;;;;;;5.93;4.63;;;;;;;;;;5075165;28;20042;-80
2022/06/22 01:03:39;;;;;;;6.38;4.88;;;;;;;;;;5081580;28;20093;-81
2022/06/22 01:06:40;;;;;;;9.35;4.88;;;;;;;;;;5075094;28;20048;-79
2022/06/22 01:09:25;;;;;;;9.68;5.88;;;;;;;;;;5068497;28;20056;-81
2022/06/22 01:14:57;;;;;;;8.65;6.13;;;;;;;;;;5058844;28;20047;-80
2022/06/22 01:17:44;;;;;;;9.75;6.10;;;;;;;;;;5077236;28;20430;-81
2022/06/22 01:20:33;;;;;;;8.85;5.97;;;;;;;;;;5045722;28;20106;-81
2022/06/22 01:23:20;;;;;;;10.30;6.10;;;;;;;;;;5080442;28;20044;-80
2022/06/22 01:25:47;;;;;;;7.78;6.68;;;;;;;;;;5077098;28;20040;-81
2022/06/22 01:28:16;;;;;;;10.10;6.97;;;;;;;;;;5061163;28;20476;-81
2022/06/22 01:31:02;;;;;;;11.45;6.82;;;;;;;;;;5048346;28;20079;-81
2022/06/22 01:33:39;;;;;;;5.95;4.70;;;;;;;;;;5078030;28;20052;-80
2022/06/22 01:36:24;;;;;;;6.80;4.28;;;;;;;;;;5056853;28;20059;-81
2022/06/22 01:38:51;;;;;;;6.03;4.28;;;;;;;;;;5076400;28;20036;-80
2022/06/22 01:41:29;;;;;;;4.47;4.00;;;;;;;;;;5080478;28;20036;-80
2022/06/22 01:44:15;;;;;;;8.25;3.42;;;;;;;;;;5077283;28;20048;-80
2022/06/22 01:46:57;;;;;;;2.13;1.92;;;;;;;;;;5081195;28;20140;-79
2022/06/22 01:49:41;;;;;;;1.80;1.55;;;;;;;;;;5080422;28;20369;-81
2022/06/22 01:52:54;;;;;;;3.22;2.03;;;;;;;;;;5082769;28;20126;-80
2022/06/22 01:55:49;;;;;;;6.90;2.90;;;;;;;;;;4999331;28;20085;-80
2022/06/22 02:01:06;;;;;;;;;;;;;;;;;;5064033;28;19925;-80
2022/06/22 02:03:35;;;;;;;;;;;;;;;;;;5084121;28;20061;-81
2022/06/22 02:07:44;;;;;;;;;;;;;;;;;;5061547;28;19998;-81
2022/06/22 02:08:53;;;;;;;;;;;;;;;;;;5065985;28;19930;-81
2022/06/22 02:15:02;;;;;;;;;;;;;;;;;;5082347;28;19931;-80
2022/06/22 02:17:29;;;;;;;;;;;;;;;;;;5084162;28;19920;-81
2022/06/22 02:19:58;;;;;;;;;;;;;;;;;;5065756;28;19924;-81
2022/06/22 02:22:27;;;;;;;;;;;;;;;;;;5063967;28;19924;-81
2022/06/22 02:27:51;;;;;;;;;;;;;;;;;;5083895;28;19924;-80
2022/06/22 02:30:17;;;;;;;;;;;;;;;;;;5062301;28;19924;-80
2022/06/22 02:32:55;;;;;;;;;;;;;;;;;;5043226;28;20041;-80
2022/06/22 02:35:21;;;;;;;;;;;;;;;;;;5080535;28;19920;-81
2022/06/22 02:37:56;;;;;;;;;;;;;;;;;;5080428;28;19927;-81
2022/06/22 02:44:29;;;;;;;;;;;;;;;;;;5064478;28;19971;-81
2022/06/22 02:46:27;;;;;;;;;;;;;;;;;;5082892;28;19920;-79
2022/06/22 02:48:53;;;;;;;;;;;;;;;;;;5083459;28;19941;-80
2022/06/22 02:51:19;;;;;;;;;;;;;;;;;;5082047;28;19939;-80
2022/06/22 02:53:45;;;;;;;;;;;;;;;;;;5080306;28;19950;-80
2022/06/22 02:56:30;;;;;;;;;;;;;;;;;;5083662;28;19920;-81
2022/06/22 03:02:16;;;;;;;;;;;11.10;99.90;;;;;;5071501;22;20018;-80
2022/06/22 03:04:48;;;;;;;;;;;;;;;;;;5059115;28;20567;-81
2022/06/22 03:10:12;;;;;;;;;;;;;;;;;;5038422;28;20050;-81
2022/06/22 03:12:38;;;;;;;;;;;;;;;;;;5046397;28;19928;-81
2022/06/22 03:15:17;;;;;;;;;;;;;;;;;;5058583;28;20006;-82
2022/06/22 03:17:42;;;;;;;;;;;11.50;99.90;;;;;;5046293;28;19927;-81
2022/06/22 03:20:27;;;;;;;;;;;;;;;;;;5043316;28;20011;-82
2022/06/22 03:23:11;;;;;;;;;;;;;;;;;;5064091;28;19921;-81
2022/06/22 03:25:37;;;;;;;;;;;;;;;;;;5042108;28;20023;-81
2022/06/22 03:28:13;;;;;;;;;;;;;;;;;;5064507;28;20007;-82
2022/06/22 03:30:51;;;;;;;;;;;;;;;;;;5038764;28;19924;-82
2022/06/22 03:33:17;;;;;;;;;;;;;;;;;;5059529;28;19924;-81
2022/06/22 03:35:43;;;;;;;;;;;;;;;;;;5043047;28;19951;-81
2022/06/22 03:38:15;;;;;;;;;;;;;;;;;;5045069;28;19933;-81
2022/06/22 03:40:57;;;;;;;;;;;;;;;;;;5037898;28;19933;-82
2022/06/22 03:43:23;;;;;;;;;;;;;;;;;;5042906;28;20405;-82
2022/06/22 03:46:04;;;;;;;;;;;;;;;;;;5061557;28;20025;-82
2022/06/22 03:48:42;;;;;;;;;;;;;;;;;;5062088;28;19924;-82
2022/06/22 03:51:18;;;;;;;;;;;;;;;;;;5043185;28;19965;-81
2022/06/22 03:53:59;;;;;;;;;;;;;;;;;;5028260;28;20289;-82
2022/06/22 03:56:25;;;;;;;;;;;;;;;;;;5058362;28;19935;-82
2022/06/22 03:58:51;;;;;;;;;;;;;;;;;;5043546;28;19927;-82
2022/06/22 04:01:17;;;;;;;;;;;;;;;;;;5058423;28;19925;-82
2022/06/22 04:09:50;;;;;;;;;;;;;;;;;;5056759;28;20010;-82
2022/06/22 04:15:10;;;;;;;;;;;;;;;;;;5057638;28;20006;-82
2022/06/22 04:17:48;;;;;;;;;;;;;;;;;;5060637;28;19982;-83
2022/06/22 04:20:24;;;;;;;;;;;;;;;;;;5059641;28;19920;-80
2022/06/22 04:22:50;;;;;;;;;;;;;;;;;;5058822;28;19933;-82
2022/06/22 04:25:31;;;;;;;;;;;;;;;;;;5041095;28;20414;-80
2022/06/22 04:28:03;;;;;;;;;;;;;;;;;;5026374;28;19927;-82
2022/06/22 04:30:30;;;;;;;;;;;;;;;;;;5043293;28;19967;-81
2022/06/22 04:33:06;;;;;;;;;;;;;;;;;;5062291;28;19940;-82
2022/06/22 04:35:32;;;;;;;;;;;;;;;;;;5058502;28;19938;-82
2022/06/22 04:38:13;;;;;;;;;;;;;;;;;;5041153;28;19927;-82
2022/06/22 04:40:40;;;;;;;;;;;;;;;;;;5056955;28;20376;-82
2022/06/22 04:43:06;;;;;;;;;;;;;;;;;;5041499;28;20441;-82
2022/06/22 04:45:32;;;;;;;;;;;;;;;;;;5025615;28;20380;-81
2022/06/22 04:48:07;;;;;;;;;;;;;;;;;;5043261;28;19921;-81
2022/06/22 04:50:41;;;;;;;;;;;12.50;99.90;;;;;;5055742;28;19931;-82
2022/06/22 04:53:13;;;;;;;;;;;;;;;;;;5025048;28;19946;-82
2022/06/22 04:55:46;;;;;;;;;;;12.50;99.90;;;;;;5051505;28;19920;-82
2022/06/22 04:58:12;;;;;;;;;;;;;;;;;;5040173;28;19925;-81
2022/06/22 05:03:44;;;;;;;;;;;;;;;;;;5057952;28;19924;-81
2022/06/22 05:06:13;;;;;;;;;;;;;;;;;;5042891;28;20051;-81
2022/06/22 05:08:42;;;;;;;;;;;13.10;99.90;;;;;;5042729;28;19920;-82
2022/06/22 05:11:08;;;;;;;;;;;;;;;;;;5059213;28;19950;-82
2022/06/22 05:13:34;;;;;;;;;;;;;;;;;;5061713;28;19924;-82
2022/06/22 05:16:00;;;;;;;;;;;;;;;;;;5059894;28;19928;-81
2022/06/22 05:18:30;;;;;;;;;;;;;;;;;;5060458;28;19942;-80
2022/06/22 05:21:20;;;;;;;;;;;13.20;99.90;;;;;;5059288;28;19920;-81
2022/06/22 05:23:46;;;;;;;;;;;;;;;;;;5042179;28;19936;-80
2022/06/22 05:26:21;;;;;;;;;;;13.40;99.90;;;;;;5058602;28;19993;-81
2022/06/22 05:28:50;;;;;;;;;;;;;;;;;;5060814;28;20284;-80
2022/06/22 05:31:16;;;;;;;;;;;;;;;;;;5059092;28;19924;-80
2022/06/22 05:33:42;;;;;;;;;;;;;;;;;;5044021;28;19925;-80
2022/06/22 05:36:08;;;;;;;;;;;;;;;;;;5045110;28;20287;-81
2022/06/22 05:38:34;;;;;;;;;;;;;;;;;;5060674;28;19927;-82
2022/06/22 05:41:07;;;;;;;;;;;;;;;;;;5037419;28;19924;-81
2022/06/22 05:43:33;;;;;;;;;;;;;;;;;;5065311;28;19924;-81
2022/06/22 05:46:14;;;;;;;;;;;;;;;;;;5064861;28;19924;-81
2022/06/22 05:48:51;;;;;;;;;;;;;;;;;;5063801;28;20004;-81
2022/06/22 05:51:29;;;;;;;;;;;;;;;;;;5060129;28;19928;-81
2022/06/22 05:53:55;;;;;;;;;;;;;;;;;;5042018;28;19925;-81
2022/06/22 05:56:28;;;;;;;;;;;;;;;;;;5067214;28;20019;-81
2022/06/22 05:58:54;;;;;;;;;;;;;;;;;;5031919;28;19921;-81
2022/06/22 06:01:20;;;;;;;;;;;;;;;;;;5060474;28;19921;-82
2022/06/22 06:03:46;;;;;;;;;;;;;;;;;;5033878;28;20023;-82
2022/06/22 06:06:15;;;;;;;;;;;;;;;;;;5068155;28;19963;-82
2022/06/22 06:08:48;;;;;;;;;;;;;;;;;;5053562;28;19925;-82
2022/06/22 06:14:38;;;;;;;;;;;;;;;;;;5034608;28;19920;-80
2022/06/22 06:17:04;;;;;;;;;;;;;;;;;;5062512;28;19933;-81
2022/06/22 06:19:30;;;;;;;;;;;;;;;;;;5059540;28;20387;-81
2022/06/22 06:22:15;;;;;;;;;;;;;;;;;;5064491;28;19967;-80
2022/06/22 06:27:34;;;;;;;;;;;;;;;;;;5054582;28;19920;-81
2022/06/22 06:30:29;;;;;;;;;;;;;;;;;;5043109;28;19929;-81
2022/06/22 06:32:55;;;;;;;;;;;;;;;;;;5039794;28;19924;-81
2022/06/22 06:35:21;;;;;;;;;;;;;;;;;;5060138;28;20484;-80
2022/06/22 06:40:48;;;;;;;;;;;;;;;;;;5039023;28;19951;-85
2022/06/22 06:43:15;;;;;;;;;;;;;;;;;;5053754;28;19987;-85
2022/06/22 06:45:40;;;;;;;;;;;;;;;;;;5057367;28;19932;-86
2022/06/22 06:48:13;;;;;;;;;;;;;;;;;;5042544;28;20341;-85
2022/06/22 06:50:39;;;;;;;;;;;;;;;;;;5058696;28;20433;-84
2022/06/22 06:53:05;;;;;;;;;;;;;;;;;;5084327;22;20015;-84
2022/06/22 06:55:31;;;;;;;;;;;;;;;;;;5063891;28;19920;-83
2022/06/22 06:58:07;;;;;;;;;;;;;;;;;;5081168;28;20369;-84
2022/06/22 07:04:02;;;;;;;;;;;;;;;;;;5054610;28;19924;-84
2022/06/22 07:06:29;;;;;;;;;;;;;;;;;;5078380;28;19938;-86
2022/06/22 07:09:05;;;;;;;;;;;;;;;;;;5070258;28;19921;-86
2022/06/22 07:11:57;;;;;;;;;;;16.80;99.90;;;;;;5071799;28;19920;-86
2022/06/22 07:17:32;;;;;;;;;;;;;;;;;;5105341;22;19920;-86
2022/06/22 07:20:05;;;;;;;;;;;;;;;;;;5095005;28;20013;-86
2022/06/22 07:22:31;;;;;;;;;;;;;;;;;;5055069;28;19924;-87
2022/06/22 07:24:57;;;;;;;;;;;;;;;;;;5070374;28;19924;-86
2022/06/22 07:27:23;;;;;;;;;;;;;;;;;;5079573;28;19920;-85
2022/06/22 07:32:46;;;;;;;;;;;;;;;;;;5083879;22;19973;-87
2022/06/22 07:57:13;;;;;;;;;;;18.50;99.90;;;;;;5057683;28;19920;-84
2022/06/22 07:59:40;;;;;;;;;;;;;;;;;;5085983;28;19978;-85
2022/06/22 08:05:09;;;;;;;;;;;;;;;;;;5074640;28;19928;-85
2022/06/22 08:07:35;;;;;;;;;;;;;;;;;;5057711;28;19946;-86
2022/06/22 08:10:01;;;;;;;;;;;;;;;;;;5047352;28;19920;-86
2022/06/22 08:12:42;;;;;;;;;;;;;;;;;;5069428;28;19920;-86
2022/06/22 08:15:08;;;;;;;;;;;;;;;;;;5070967;28;20340;-85
2022/06/22 08:29:15;;;;;;;;;;;;;;;;;;5073210;28;19958;-87
2022/06/22 08:31:41;;;;;;;;;;;;;;;;;;5059792;28;19927;-86
2022/06/22 08:34:51;;;;;;;;;;;19.60;99.90;;;;;;5071777;28;19920;-86
2022/06/22 08:37:20;;;;;;;;;;;;;;;;;;5074926;28;19920;-84
2022/06/22 08:42:50;;;;;;;;;;;;;;;;;;5086654;28;19923;-83
2022/06/22 08:45:17;;;;;;;;;;;;;;;;;;5059547;28;19986;-84
2022/06/22 08:54:11;;;;;;;;;;;20.10;99.90;;;;;;5114634;22;19974;-86
2022/06/22 09:10:00;;;;;;;;;;;20.20;99.90;;;;;;5013526;28;20037;-84
2022/06/22 09:25:47;;;;;;;;;;;;;;;;;;5052189;28;19935;-84
2022/06/22 09:28:20;;;;;;;;;;;;;;;;;;5054139;28;19921;-86
2022/06/22 09:34:00;;;;;;;;;;;;;;;;;;5047143;28;19923;-85
2022/06/22 09:36:26;;;;;;;;;;;;;;;;;;5066385;28;19993;-86
2022/06/22 09:41:40;;;;;;;;;;;;;;;;;;5040057;28;20388;-86
2022/06/22 09:44:08;;;;;;;;;;;;;;;;;;5053461;28;19947;-85
2022/06/22 09:46:34;;;;;;;;;;;;;;;;;;5051836;28;19925;-87
2022/06/22 09:52:12;;;;;;;;;;;;;;;;;;5048902;28;19919;-86
2022/06/22 09:57:47;;;;;;;;;;;;;;;;;;5034105;28;19924;-86
2022/06/22 10:00:45;;;;;;;;;;;20.60;99.90;;;;;;5052040;28;19932;-87
2022/06/22 10:03:12;;;;;;;;;;;;;;;;;;5050362;28;19975;-87
2022/06/22 10:05:55;;;;;;;;;;;;;;;;;;5038057;28;20012;-86
2022/06/22 10:08:33;;;;;;;;;;;;;;;;;;5025053;28;19928;-85
2022/06/22 10:10:58;;;;;;;;;;;21.20;99.90;;;;;;5053928;28;19925;-85
2022/06/22 10:13:24;;;;;;;;;;;;;;;;;;5052578;28;19921;-87
2022/06/22 10:22:09;;;;;;;;;;;;;;;;;;5049806;28;20295;-85
2022/06/22 10:25:06;;;;;;;;;;;21.90;99.90;;;;;;5037817;28;19932;-87
2022/06/22 10:27:33;;;;;;;;;;;;;;;;;;5051869;28;19920;-87
2022/06/22 10:29:59;;;;;;;;;;;;;;;;;;5035540;28;20368;-86
2022/06/22 10:32:53;;;;;;;;;;;21.40;99.90;;;;;;5051719;28;19969;-86
2022/06/22 10:35:25;;;;;;;;;;;;;;;;;;5052159;28;19920;-86
2022/06/22 10:37:57;;;;;;;;;;;;;;;;;;5052008;28;19928;-85
2022/06/22 10:55:10;;;;;;;;;;;;;;;;;;5044117;28;20355;-82
2022/06/22 10:57:36;;;;;;;;;;;;;;;;;;5037980;28;19921;-82
2022/06/22 11:08:26;;;;;;;;;;;;;;;;;;5088815;22;19948;-83
2022/06/22 11:11:18;;;;;;;;;;;23.00;99.90;;;;;;5042375;28;19932;-82
2022/06/22 11:37:27;;;;;;;;;;;;;;;;;;5030632;28;19948;-85
2022/06/22 11:40:07;;;;;;;;;;;24.60;99.90;;;;;;5030865;28;19921;-84
2022/06/22 11:42:39;;;;;;;;;;;;;;;;;;5013048;28;20007;-86
2022/06/22 11:50:52;;;;;;;;;;;;;;;;;;5030464;28;20043;-85
2022/06/22 12:27:29;;;;;;;;;;;;;;;;;;5051239;22;19929;-84
2022/06/22 12:30:13;;;;;;;;;;;24.40;99.90;;;;;;5000331;28;19925;-85
2022/06/22 12:32:40;;;;;;;;;;;;;;;;;;5032180;28;19916;-84
2022/06/22 12:40:54;;;;;;;;;;;;;;;;;;4963100;28;19992;-87
2022/06/22 12:43:20;;;;;;;;;;;;;;;;;;4964832;28;19928;-84
2022/06/22 12:45:55;;;;;;;;;;;25.30;99.90;;;;;;4961426;28;20032;-85
2022/06/22 12:48:21;;;;;;;;;;;;;;;;;;4963357;28;19925;-85
2022/06/22 12:59:52;;;;;;;;;;;;;;;;;;5116449;22;20510;-84
2022/06/22 13:02:23;;;;;;;;;;;24.60;99.90;;;;;;5012387;28;20003;-85
2022/06/22 13:17:11;;;;;;;;;;;;;;;;;;5036062;23;19979;-84
2022/06/22 13:19:37;;;;;;;;;;;;;;;;;;4998380;28;20019;-84
2022/06/22 13:22:03;;;;;;;;;;;;;;;;;;5019281;28;19925;-84
2022/06/22 13:30:18;;;;;;;;;;;23.60;99.90;;;;;;5056282;23;19925;-85
2022/06/22 13:32:54;;;;;;;;;;;23.40;99.90;;;;;;5018927;28;19925;-83
2022/06/22 13:35:20;;;;;;;;;;;;;;;;;;5048119;28;19979;-83
2022/06/22 13:37:46;;;;;;;;;;;;;;;;;;5034301;28;20017;-85
2022/06/22 14:04:28;;;;;;;;;;;;;;;;;;4976174;28;19956;-85
2022/06/22 14:21:19;;;;;;;;;;;;;;;;;;5504299;22;19921;-84
2022/06/22 14:26:42;;;;;;;;;;;;;;;;;;5053946;22;20703;-84
2022/06/22 14:37:02;;;;;;;;;;;;;;;;;;5840340;22;19965;-85
2022/06/22 14:39:28;;;;;;;;;;;;;;;;;;5045683;28;19925;-84
2022/06/22 14:53:22;;;;;;;;;;;;;;;;;;4995624;28;19928;-85
2022/06/22 14:55:48;;;;;;;;;;;;;;;;;;5008373;28;19922;-85
2022/06/22 15:01:18;;;;;;;;;;;;;;;;;;5231214;22;20023;-85
2022/06/22 15:03:44;;;;;;;;;;;;;;;;;;5012114;28;20299;-85
2022/06/22 15:23:55;;;;;;;;;;;23.70;99.90;;;;;;5758389;22;19933;-85
2022/06/22 15:26:21;;;;;;;;;;;;;;;;;;4993370;28;20427;-86
2022/06/22 15:57:57;;;;;;;;;;;;;;;;;;5070415;23;19966;-86
2022/06/22 16:21:37;;;;;;;;;;;;;;;;;;5010387;28;19945;-85
2022/06/22 16:24:03;;;;;;;;;;;22.70;99.90;;;;;;5012520;28;19927;-85
2022/06/22 16:26:48;;;;;;;;;;;;;;;;;;5001934;28;19922;-85
2022/06/22 16:32:20;;;;;;;;;;;;;;;;;;5054544;23;19939;-85
2022/06/22 16:34:46;;;;;;;;;;;;;;;;;;5054841;28;19983;-85
2022/06/22 18:04:57;;;;;;;;;;;;;;;;;;6128184;22;19939;-85
2022/06/22 18:22:52;;;;;;;;;;;;;;;;;;5566904;22;19940;-86
2022/06/22 18:25:18;;;;;;;;;;;;;;;;;;5027484;28;19948;-86
2022/06/22 19:02:46;;;;;;;;;;;;;;;;;;5241501;22;19953;-86
2022/06/22 19:05:12;;;;;;;;;;;;;;;;;;5040426;28;19921;-85
2022/06/22 19:07:39;;;;;;;;;;;;;;;;;;5032957;28;19953;-87
2022/06/22 19:24:46;;;;;;;;;;;;;;;;;;5183132;22;20774;-86
2022/06/22 19:27:18;;;;;;;;;;;;;;;;;;5018135;28;19922;-86
2022/06/22 19:50:24;;;;;;;;;;;;;;;;;;5045582;22;20842;-83
2022/06/22 19:52:50;;;;;;;;;;;;;;;;;;5019942;28;19992;-85
2022/06/22 20:01:05;;;;;;;;;;;;;;;;;;5197267;22;20428;-84
2022/06/22 20:03:31;;;;;;;;;;;;;;;;;;5031892;28;19921;-86
2022/06/22 20:05:57;;;;;;;;;;;;;;;;;;5034652;28;19920;-85
2022/06/22 20:08:23;;;;;;;;;;;;;;;;;;5037636;28;19921;-86
2022/06/22 20:10:52;;;;;;;;;;;17.10;99.90;;;;;;5035694;28;19925;-85
2022/06/22 20:16:21;;;;;;;;;;;;;;;;;;5042701;22;19971;-84
2022/06/22 20:18:47;;;;;;;;;;;;;;;;;;5034062;28;19921;-84
2022/06/22 20:23:43;;;;;;;;;;;;;;;;;;5043078;22;19921;-84
2022/06/22 20:26:09;;;;;;;;;;;;;;;;;;5016191;28;19928;-86
2022/06/22 20:32:00;;;;;;;;;;;;;;;;;;5057986;22;19927;-84
2022/06/22 20:34:35;;;;;;;;;;;;;;;;;;5037905;28;19921;-85
2022/06/22 20:39:55;;;;;;;;;;;17.10;99.90;;;;;;5062834;22;19925;-84
2022/06/22 20:42:21;;;;;;;;;;;;;;;;;;5016084;28;19979;-85
2022/06/22 20:45:06;;;;;;;;;;;;;;;;;;5019780;28;19921;-85
2022/06/22 20:53:32;;;;;;;;;;;;;;;;;;5059481;22;19967;-84
2022/06/22 20:55:58;;;;;;;;;;;;;;;;;;5050519;28;19948;-85
2022/06/22 21:11:02;;;;;;;;;;;;;;;;;;5076331;22;19927;-85
2022/06/22 21:26:04;;;;;;;;;;;16.60;99.90;;;;;;5039486;22;19975;-86
2022/06/22 22:02:49;;;;;;;;;;;;;;;;;;5349725;22;19988;-84
2022/06/22 22:05:15;;;;;;;;;;;;;;;;;;5037879;28;19921;-84
2022/06/22 22:07:41;;;;;;;;;;;;;;;;;;5038519;28;19929;-84
2022/06/22 22:10:20;;;;;;;;;;;16.00;99.90;;;;;;5067846;22;19924;-86
2022/06/22 22:15:57;;;;;;;;;;;;;;;;;;5027377;22;19989;-84
2022/06/22 22:18:23;;;;;;;;;;;;;;;;;;5013680;28;19928;-85
2022/06/22 22:20:49;;;;;;;;;;;;;;;;;;5017032;28;19921;-85
2022/06/22 22:23:15;;;;;;;;;;;;;;;;;;4980056;28;19928;-83
2022/06/22 22:55:43;;;;;;;;;;;15.80;99.90;;;;;;5161052;22;19955;31
2022/06/22 23:04:14;;;;;;;;;;;;;;;;;;4953165;28;19985;-87
2022/06/22 23:22:45;;;;;;;;;;;15.60;99.90;;;;;;5059051;22;19950;-86
2022/06/22 23:25:11;;;;;;;;;;;;;;;;;;5048675;28;19956;-85
2022/06/22 23:27:37;;;;;;;;;;;;;;;;;;5057345;28;19943;-85
2022/06/22 23:44:52;;;;;;;;;;;;;;;;;;5024498;22;20468;-84
2022/06/22 23:50:08;;;;;;;;;;;;;;;;;;5038941;28;20006;-84
2022/06/22 23:52:34;;;;;;;;;;;;;;;;;;5036712;28;20304;-86
2022/06/22 23:55:00;;;;;;;;;;;;;;;;;;5037484;28;19925;-85
